sensor_id;sensor_type;location;lat;lon;timestamp;temperature;humidity
29571;DHT22;16814;52.118;11.436;2023-09-18T00:00:54;18.10;99.90
29571;DHT22;16814;52.118;11.436;2023-09-18T00:03:23;18.00;99.90
29571;DHT22;16814;52.118;11.436;2023-09-18T00:05:51;17.90;99.90
29571;DHT22;16814;52.118;11.436;2023-09-18T00:08:17;18.10;99.90
29571;DHT22;16814;52.118;11.436;2023-09-18T00:10:52;18.20;99.90
29571;DHT22;16814;52.118;11.436;2023-09-18T00:13:19;18.10;99.90
29571;DHT22;16814;52.118;11.436;2023-09-18T00:15:53;18.40;99.90
29571;DHT22;16814;52.118;11.436;2023-09-18T00:18:19;18.50;99.90
29571;DHT22;16814;52.118;11.436;2023-09-18T00:20:46;18.40;99.90
29571;DHT22;16814;52.118;11.436;2023-09-18T00:23:13;18.50;99.90
29571;DHT22;16814;52.118;11.436;2023-09-18T00:25:40;18.50;99.90
29571;DHT22;16814;52.118;11.436;2023-09-18T00:28:08;18.50;99.90
29571;DHT22;16814;52.118;11.436;2023-09-18T00:30:34;18.50;99.90
29571;DHT22;16814;52.118;11.436;2023-09-18T00:32:59;18.50;99.90
29571;DHT22;16814;52.118;11.436;2023-09-18T00:35:25;18.40;99.90
29571;DHT22;16814;52.118;11.436;2023-09-18T00:37:51;18.20;99.90
29571;DHT22;16814;52.118;11.436;2023-09-18T00:40:16;18.20;99.90
29571;DHT22;16814;52.118;11.436;2023-09-18T00:42:44;18.20;99.90
29571;DHT22;16814;52.118;11.436;2023-09-18T00:45:10;18.10;99.90
29571;DHT22;16814;52.118;11.436;2023-09-18T00:47:36;18.00;99.90
29571;DHT22;16814;52.118;11.436;2023-09-18T00:50:04;17.90;99.90
29571;DHT22;16814;52.118;11.436;2023-09-18T00:52:31;17.80;99.90
29571;DHT22;16814;52.118;11.436;2023-09-18T00:54:57;17.80;99.90
29571;DHT22;16814;52.118;11.436;2023-09-18T00:57:23;17.90;99.90
29571;DHT22;16814;52.118;11.436;2023-09-18T00:59:50;18.10;99.90
29571;DHT22;16814;52.118;11.436;2023-09-18T01:02:16;18.00;99.90
29571;DHT22;16814;52.118;11.436;2023-09-18T01:04:42;18.00;99.90
29571;DHT22;16814;52.118;11.436;2023-09-18T01:07:10;18.60;99.90
29571;DHT22;16814;52.118;11.436;2023-09-18T01:09:37;18.10;99.90
29571;DHT22;16814;52.118;11.436;2023-09-18T01:14:50;18.10;99.90
29571;DHT22;16814;52.118;11.436;2023-09-18T01:17:17;18.10;99.90
29571;DHT22;16814;52.118;11.436;2023-09-18T01:19:46;18.10;99.90
29571;DHT22;16814;52.118;11.436;2023-09-18T01:22:14;18.10;99.90
29571;DHT22;16814;52.118;11.436;2023-09-18T01:24:41;18.10;99.90
29571;DHT22;16814;52.118;11.436;2023-09-18T01:27:11;18.20;99.90
29571;DHT22;16814;52.118;11.436;2023-09-18T01:29:40;18.10;99.90
29571;DHT22;16814;52.118;11.436;2023-09-18T01:32:06;18.20;99.90
29571;DHT22;16814;52.118;11.436;2023-09-18T01:34:41;18.10;99.90
29571;DHT22;16814;52.118;11.436;2023-09-18T01:37:09;18.10;99.90
29571;DHT22;16814;52.118;11.436;2023-09-18T01:39:35;18.30;99.90
29571;DHT22;16814;52.118;11.436;2023-09-18T01:42:03;18.20;99.90
29571;DHT22;16814;52.118;11.436;2023-09-18T01:44:30;18.20;99.90
29571;DHT22;16814;52.118;11.436;2023-09-18T01:46:58;18.20;99.90
29571;DHT22;16814;52.118;11.436;2023-09-18T01:49:41;18.10;99.90
29571;DHT22;16814;52.118;11.436;2023-09-18T01:52:09;18.10;99.90
29571;DHT22;16814;52.118;11.436;2023-09-18T01:54:35;18.10;99.90
29571;DHT22;16814;52.118;11.436;2023-09-18T01:57:02;18.00;99.90
29571;DHT22;16814;52.118;11.436;2023-09-18T01:59:28;18.00;99.90
29571;DHT22;16814;52.118;11.436;2023-09-18T02:01:54;18.00;99.90
29571;DHT22;16814;52.118;11.436;2023-09-18T02:04:21;18.10;99.90
29571;DHT22;16814;52.118;11.436;2023-09-18T02:06:48;18.10;99.90
29571;DHT22;16814;52.118;11.436;2023-09-18T02:09:13;18.10;99.90
29571;DHT22;16814;52.118;11.436;2023-09-18T02:11:43;18.20;99.90
29571;DHT22;16814;52.118;11.436;2023-09-18T02:14:10;17.90;99.90
29571;DHT22;16814;52.118;11.436;2023-09-18T02:16:37;17.80;99.90
29571;DHT22;16814;52.118;11.436;2023-09-18T02:19:04;17.90;99.90
29571;DHT22;16814;52.118;11.436;2023-09-18T02:21:30;17.90;99.90
29571;DHT22;16814;52.118;11.436;2023-09-18T02:23:56;17.80;99.90
29571;DHT22;16814;52.118;11.436;2023-09-18T02:26:23;17.80;99.90
29571;DHT22;16814;52.118;11.436;2023-09-18T02:28:54;17.70;99.90
29571;DHT22;16814;52.118;11.436;2023-09-18T02:31:21;17.60;99.90
29571;DHT22;16814;52.118;11.436;2023-09-18T02:33:48;17.70;99.90
29571;DHT22;16814;52.118;11.436;2023-09-18T02:36:14;17.70;99.90
29571;DHT22;16814;52.118;11.436;2023-09-18T02:38:40;17.60;99.90
29571;DHT22;16814;52.118;11.436;2023-09-18T02:41:07;17.60;99.90
29571;DHT22;16814;52.118;11.436;2023-09-18T02:43:33;17.50;99.90
29571;DHT22;16814;52.118;11.436;2023-09-18T02:45:59;17.40;99.90
29571;DHT22;16814;52.118;11.436;2023-09-18T02:48:25;17.30;99.90
29571;DHT22;16814;52.118;11.436;2023-09-18T02:50:50;17.30;99.90
29571;DHT22;16814;52.118;11.436;2023-09-18T02:53:18;17.40;99.90
29571;DHT22;16814;52.118;11.436;2023-09-18T02:55:44;17.40;99.90
29571;DHT22;16814;52.118;11.436;2023-09-18T02:58:10;17.40;99.90
29571;DHT22;16814;52.118;11.436;2023-09-18T03:00:46;17.30;99.90
29571;DHT22;16814;52.118;11.436;2023-09-18T03:03:13;17.30;99.90
29571;DHT22;16814;52.118;11.436;2023-09-18T03:05:39;17.20;99.90
29571;DHT22;16814;52.118;11.436;2023-09-18T03:08:06;17.20;99.90
29571;DHT22;16814;52.118;11.436;2023-09-18T03:10:35;17.30;99.90
29571;DHT22;16814;52.118;11.436;2023-09-18T03:13:02;17.30;99.90
29571;DHT22;16814;52.118;11.436;2023-09-18T03:15:28;17.30;99.90
29571;DHT22;16814;52.118;11.436;2023-09-18T03:17:57;17.40;99.90
29571;DHT22;16814;52.118;11.436;2023-09-18T03:20:26;17.30;99.90
29571;DHT22;16814;52.118;11.436;2023-09-18T03:22:54;17.20;99.90
29571;DHT22;16814;52.118;11.436;2023-09-18T03:25:20;17.10;99.90
29571;DHT22;16814;52.118;11.436;2023-09-18T03:27:47;17.00;99.90
29571;DHT22;16814;52.118;11.436;2023-09-18T03:30:12;16.90;99.90
29571;DHT22;16814;52.118;11.436;2023-09-18T03:32:42;16.80;99.90
29571;DHT22;16814;52.118;11.436;2023-09-18T03:35:08;16.80;99.90
29571;DHT22;16814;52.118;11.436;2023-09-18T03:37:41;16.70;99.90
29571;DHT22;16814;52.118;11.436;2023-09-18T03:40:07;16.60;99.90
29571;DHT22;16814;52.118;11.436;2023-09-18T03:42:34;16.50;99.90
29571;DHT22;16814;52.118;11.436;2023-09-18T03:44:59;16.50;99.90
29571;DHT22;16814;52.118;11.436;2023-09-18T03:47:25;16.50;99.90
29571;DHT22;16814;52.118;11.436;2023-09-18T03:49:51;16.50;99.90
29571;DHT22;16814;52.118;11.436;2023-09-18T03:52:16;16.60;99.90
29571;DHT22;16814;52.118;11.436;2023-09-18T03:54:42;16.70;99.90
29571;DHT22;16814;52.118;11.436;2023-09-18T03:57:07;16.80;99.90
29571;DHT22;16814;52.118;11.436;2023-09-18T03:59:33;16.90;99.90
29571;DHT22;16814;52.118;11.436;2023-09-18T04:01:59;17.00;99.90
29571;DHT22;16814;52.118;11.436;2023-09-18T04:04:24;16.90;99.90
29571;DHT22;16814;52.118;11.436;2023-09-18T04:06:50;17.00;99.90
29571;DHT22;16814;52.118;11.436;2023-09-18T04:09:15;16.80;99.90
29571;DHT22;16814;52.118;11.436;2023-09-18T04:11:41;16.80;99.90
29571;DHT22;16814;52.118;11.436;2023-09-18T04:14:07;16.70;99.90
29571;DHT22;16814;52.118;11.436;2023-09-18T04:16:34;16.70;99.90
29571;DHT22;16814;52.118;11.436;2023-09-18T04:19:01;16.80;99.90
29571;DHT22;16814;52.118;11.436;2023-09-18T04:21:28;16.80;99.90
29571;DHT22;16814;52.118;11.436;2023-09-18T04:23:57;16.80;99.90
29571;DHT22;16814;52.118;11.436;2023-09-18T04:26:24;16.80;99.90
29571;DHT22;16814;52.118;11.436;2023-09-18T04:28:55;17.00;99.90
29571;DHT22;16814;52.118;11.436;2023-09-18T04:31:21;17.00;99.90
29571;DHT22;16814;52.118;11.436;2023-09-18T04:33:48;16.90;99.90
29571;DHT22;16814;52.118;11.436;2023-09-18T04:36:15;16.80;99.90
29571;DHT22;16814;52.118;11.436;2023-09-18T04:38:42;16.80;99.90
29571;DHT22;16814;52.118;11.436;2023-09-18T04:41:11;16.70;99.90
29571;DHT22;16814;52.118;11.436;2023-09-18T04:43:37;16.70;99.90
29571;DHT22;16814;52.118;11.436;2023-09-18T04:46:04;16.80;99.90
29571;DHT22;16814;52.118;11.436;2023-09-18T04:48:30;16.90;99.90
29571;DHT22;16814;52.118;11.436;2023-09-18T04:50:56;16.80;99.90
29571;DHT22;16814;52.118;11.436;2023-09-18T04:53:22;16.90;99.90
29571;DHT22;16814;52.118;11.436;2023-09-18T04:55:47;16.90;99.90
29571;DHT22;16814;52.118;11.436;2023-09-18T04:58:17;16.90;99.90
29571;DHT22;16814;52.118;11.436;2023-09-18T05:00:43;16.90;99.90
29571;DHT22;16814;52.118;11.436;2023-09-18T05:03:09;16.90;99.90
29571;DHT22;16814;52.118;11.436;2023-09-18T05:05:35;16.90;99.90
29571;DHT22;16814;52.118;11.436;2023-09-18T05:08:06;17.00;99.90
29571;DHT22;16814;52.118;11.436;2023-09-18T05:10:36;16.90;99.90
29571;DHT22;16814;52.118;11.436;2023-09-18T05:13:03;16.90;99.90
29571;DHT22;16814;52.118;11.436;2023-09-18T05:15:30;16.90;99.90
29571;DHT22;16814;52.118;11.436;2023-09-18T05:17:56;17.00;99.90
29571;DHT22;16814;52.118;11.436;2023-09-18T05:20:26;16.90;99.90
29571;DHT22;16814;52.118;11.436;2023-09-18T05:22:54;17.00;99.90
29571;DHT22;16814;52.118;11.436;2023-09-18T05:25:26;16.90;99.90
29571;DHT22;16814;52.118;11.436;2023-09-18T05:27:53;17.00;99.90
29571;DHT22;16814;52.118;11.436;2023-09-18T05:30:26;17.10;99.90
29571;DHT22;16814;52.118;11.436;2023-09-18T05:32:57;17.10;99.90
29571;DHT22;16814;52.118;11.436;2023-09-18T05:35:30;17.20;99.90
29571;DHT22;16814;52.118;11.436;2023-09-18T05:37:57;17.20;99.90
29571;DHT22;16814;52.118;11.436;2023-09-18T05:40:24;17.20;99.90
29571;DHT22;16814;52.118;11.436;2023-09-18T05:42:53;17.20;99.90
29571;DHT22;16814;52.118;11.436;2023-09-18T05:45:20;17.20;99.90
29571;DHT22;16814;52.118;11.436;2023-09-18T05:47:47;17.30;99.90
29571;DHT22;16814;52.118;11.436;2023-09-18T05:50:13;17.40;99.90
29571;DHT22;16814;52.118;11.436;2023-09-18T05:52:51;17.40;99.90
29571;DHT22;16814;52.118;11.436;2023-09-18T05:55:18;17.40;99.90
29571;DHT22;16814;52.118;11.436;2023-09-18T05:57:44;17.50;99.90
29571;DHT22;16814;52.118;11.436;2023-09-18T06:00:09;17.60;99.90
29571;DHT22;16814;52.118;11.436;2023-09-18T06:02:39;17.60;99.90
29571;DHT22;16814;52.118;11.436;2023-09-18T06:05:04;17.60;99.90
29571;DHT22;16814;52.118;11.436;2023-09-18T06:07:32;17.70;99.90
29571;DHT22;16814;52.118;11.436;2023-09-18T06:09:58;17.70;99.90
29571;DHT22;16814;52.118;11.436;2023-09-18T06:12:25;17.80;99.90
29571;DHT22;16814;52.118;11.436;2023-09-18T06:14:51;17.80;99.90
29571;DHT22;16814;52.118;11.436;2023-09-18T06:17:17;17.90;99.90
29571;DHT22;16814;52.118;11.436;2023-09-18T06:19:43;18.10;99.90
29571;DHT22;16814;52.118;11.436;2023-09-18T06:22:09;18.10;99.90
29571;DHT22;16814;52.118;11.436;2023-09-18T06:24:35;18.20;99.90
29571;DHT22;16814;52.118;11.436;2023-09-18T06:27:01;18.60;99.90
29571;DHT22;16814;52.118;11.436;2023-09-18T06:29:26;18.20;99.90
29571;DHT22;16814;52.118;11.436;2023-09-18T06:31:52;18.40;99.90
29571;DHT22;16814;52.118;11.436;2023-09-18T06:34:18;18.50;99.90
29571;DHT22;16814;52.118;11.436;2023-09-18T06:36:43;18.60;99.90
29571;DHT22;16814;52.118;11.436;2023-09-18T06:39:09;18.70;99.90
29571;DHT22;16814;52.118;11.436;2023-09-18T06:41:34;19.40;99.90
29571;DHT22;16814;52.118;11.436;2023-09-18T06:44:00;19.20;99.90
29571;DHT22;16814;52.118;11.436;2023-09-18T06:46:29;19.80;99.90
29571;DHT22;16814;52.118;11.436;2023-09-18T06:48:54;20.50;99.90
29571;DHT22;16814;52.118;11.436;2023-09-18T06:51:23;21.10;99.90
29571;DHT22;16814;52.118;11.436;2023-09-18T06:53:48;21.90;99.90
29571;DHT22;16814;52.118;11.436;2023-09-18T06:56:14;22.30;99.90
29571;DHT22;16814;52.118;11.436;2023-09-18T06:58:39;22.60;99.90
29571;DHT22;16814;52.118;11.436;2023-09-18T07:01:06;22.90;99.90
29571;DHT22;16814;52.118;11.436;2023-09-18T07:03:32;22.90;99.90
29571;DHT22;16814;52.118;11.436;2023-09-18T07:06:00;22.90;99.90
29571;DHT22;16814;52.118;11.436;2023-09-18T07:08:25;23.10;99.90
29571;DHT22;16814;52.118;11.436;2023-09-18T07:10:51;22.80;99.90
29571;DHT22;16814;52.118;11.436;2023-09-18T07:13:17;22.60;99.90
29571;DHT22;16814;52.118;11.436;2023-09-18T07:15:42;22.50;99.90
29571;DHT22;16814;52.118;11.436;2023-09-18T07:18:09;22.40;99.90
29571;DHT22;16814;52.118;11.436;2023-09-18T07:20:40;22.50;99.90
29571;DHT22;16814;52.118;11.436;2023-09-18T07:23:07;22.70;99.90
29571;DHT22;16814;52.118;11.436;2023-09-18T07:25:32;22.80;99.90
29571;DHT22;16814;52.118;11.436;2023-09-18T07:28:00;22.60;99.90
29571;DHT22;16814;52.118;11.436;2023-09-18T07:30:26;22.50;99.90
29571;DHT22;16814;52.118;11.436;2023-09-18T07:32:55;22.50;99.90
29571;DHT22;16814;52.118;11.436;2023-09-18T07:35:24;22.50;99.90
29571;DHT22;16814;52.118;11.436;2023-09-18T07:37:55;22.40;99.90
29571;DHT22;16814;52.118;11.436;2023-09-18T07:40:22;22.20;99.90
29571;DHT22;16814;52.118;11.436;2023-09-18T07:42:49;22.00;99.90
29571;DHT22;16814;52.118;11.436;2023-09-18T07:45:15;21.80;99.90
29571;DHT22;16814;52.118;11.436;2023-09-18T07:47:44;21.70;99.90
29571;DHT22;16814;52.118;11.436;2023-09-18T07:50:10;21.70;99.90
29571;DHT22;16814;52.118;11.436;2023-09-18T07:52:36;21.70;99.90
29571;DHT22;16814;52.118;11.436;2023-09-18T07:55:03;21.70;99.90
29571;DHT22;16814;52.118;11.436;2023-09-18T07:57:29;21.60;99.90
29571;DHT22;16814;52.118;11.436;2023-09-18T07:59:57;21.60;99.90
29571;DHT22;16814;52.118;11.436;2023-09-18T08:02:24;21.50;99.90
29571;DHT22;16814;52.118;11.436;2023-09-18T08:04:50;21.70;99.90
29571;DHT22;16814;52.118;11.436;2023-09-18T08:07:19;21.50;99.90
29571;DHT22;16814;52.118;11.436;2023-09-18T08:09:45;21.50;99.90
29571;DHT22;16814;52.118;11.436;2023-09-18T08:12:14;21.50;99.90
29571;DHT22;16814;52.118;11.436;2023-09-18T08:14:39;21.60;99.90
29571;DHT22;16814;52.118;11.436;2023-09-18T08:17:09;21.60;99.90
29571;DHT22;16814;52.118;11.436;2023-09-18T08:19:35;21.80;99.90
29571;DHT22;16814;52.118;11.436;2023-09-18T08:22:02;21.90;99.90
29571;DHT22;16814;52.118;11.436;2023-09-18T08:24:29;22.00;99.90
29571;DHT22;16814;52.118;11.436;2023-09-18T08:26:55;22.20;99.90
29571;DHT22;16814;52.118;11.436;2023-09-18T08:29:21;22.30;99.90
29571;DHT22;16814;52.118;11.436;2023-09-18T08:31:47;22.40;99.90
29571;DHT22;16814;52.118;11.436;2023-09-18T08:34:13;22.20;99.90
29571;DHT22;16814;52.118;11.436;2023-09-18T08:36:40;22.00;99.90
29571;DHT22;16814;52.118;11.436;2023-09-18T08:39:05;22.00;99.90
29571;DHT22;16814;52.118;11.436;2023-09-18T08:41:38;22.00;99.90
29571;DHT22;16814;52.118;11.436;2023-09-18T08:44:08;22.40;99.90
29571;DHT22;16814;52.118;11.436;2023-09-18T08:46:36;21.80;99.90
29571;DHT22;16814;52.118;11.436;2023-09-18T08:49:03;22.00;99.90
29571;DHT22;16814;52.118;11.436;2023-09-18T08:51:29;22.00;99.90
29571;DHT22;16814;52.118;11.436;2023-09-18T08:53:56;22.40;99.90
29571;DHT22;16814;52.118;11.436;2023-09-18T08:56:22;22.00;99.90
29571;DHT22;16814;52.118;11.436;2023-09-18T08:58:50;22.10;99.90
29571;DHT22;16814;52.118;11.436;2023-09-18T09:01:16;22.00;99.90
29571;DHT22;16814;52.118;11.436;2023-09-18T09:03:43;22.10;99.90
29571;DHT22;16814;52.118;11.436;2023-09-18T09:06:11;22.10;99.90
29571;DHT22;16814;52.118;11.436;2023-09-18T09:08:37;22.10;99.90
29571;DHT22;16814;52.118;11.436;2023-09-18T09:11:03;22.10;99.90
29571;DHT22;16814;52.118;11.436;2023-09-18T09:13:29;21.90;99.90
29571;DHT22;16814;52.118;11.436;2023-09-18T09:15:57;22.00;99.90
29571;DHT22;16814;52.118;11.436;2023-09-18T09:18:24;21.80;99.90
29571;DHT22;16814;52.118;11.436;2023-09-18T09:20:57;21.80;99.90
29571;DHT22;16814;52.118;11.436;2023-09-18T09:23:25;21.90;99.90
29571;DHT22;16814;52.118;11.436;2023-09-18T09:25:51;21.90;99.90
29571;DHT22;16814;52.118;11.436;2023-09-18T09:28:34;22.00;99.90
29571;DHT22;16814;52.118;11.436;2023-09-18T09:31:01;22.00;99.90
29571;DHT22;16814;52.118;11.436;2023-09-18T09:33:28;22.10;99.90
29571;DHT22;16814;52.118;11.436;2023-09-18T09:35:55;22.20;99.90
29571;DHT22;16814;52.118;11.436;2023-09-18T09:38:29;22.10;99.90
29571;DHT22;16814;52.118;11.436;2023-09-18T09:40:57;22.20;99.90
29571;DHT22;16814;52.118;11.436;2023-09-18T09:43:25;22.20;99.90
29571;DHT22;16814;52.118;11.436;2023-09-18T09:45:57;22.10;99.90
29571;DHT22;16814;52.118;11.436;2023-09-18T09:48:24;22.20;99.90
29571;DHT22;16814;52.118;11.436;2023-09-18T09:50:51;22.00;99.90
29571;DHT22;16814;52.118;11.436;2023-09-18T09:53:17;21.90;99.90
29571;DHT22;16814;52.118;11.436;2023-09-18T09:55:43;22.00;99.90
29571;DHT22;16814;52.118;11.436;2023-09-18T09:58:12;21.80;99.90
29571;DHT22;16814;52.118;11.436;2023-09-18T10:00:43;21.80;99.90
29571;DHT22;16814;52.118;11.436;2023-09-18T10:03:13;21.80;99.90
29571;DHT22;16814;52.118;11.436;2023-09-18T10:05:42;21.70;99.90
29571;DHT22;16814;52.118;11.436;2023-09-18T10:08:23;21.60;99.90
29571;DHT22;16814;52.118;11.436;2023-09-18T10:10:53;21.50;99.90
29571;DHT22;16814;52.118;11.436;2023-09-18T10:13:32;21.60;99.90
29571;DHT22;16814;52.118;11.436;2023-09-18T10:15:58;22.50;99.90
29571;DHT22;16814;52.118;11.436;2023-09-18T10:21:33;21.50;99.90
29571;DHT22;16814;52.118;11.436;2023-09-18T10:26:41;21.90;99.90
29571;DHT22;16814;52.118;11.436;2023-09-18T10:29:11;22.00;99.90
29571;DHT22;16814;52.118;11.436;2023-09-18T10:31:40;22.20;99.90
29571;DHT22;16814;52.118;11.436;2023-09-18T10:34:06;22.30;99.90
29571;DHT22;16814;52.118;11.436;2023-09-18T10:36:34;22.50;99.90
29571;DHT22;16814;52.118;11.436;2023-09-18T10:39:00;22.60;99.90
29571;DHT22;16814;52.118;11.436;2023-09-18T10:41:26;22.60;99.90
29571;DHT22;16814;52.118;11.436;2023-09-18T10:43:53;22.90;99.90
29571;DHT22;16814;52.118;11.436;2023-09-18T10:46:19;22.70;99.90
29571;DHT22;16814;52.118;11.436;2023-09-18T10:48:46;22.80;99.90
29571;DHT22;16814;52.118;11.436;2023-09-18T10:51:13;22.80;99.90
29571;DHT22;16814;52.118;11.436;2023-09-18T10:53:40;22.80;99.90
29571;DHT22;16814;52.118;11.436;2023-09-18T10:56:05;22.90;99.90
29571;DHT22;16814;52.118;11.436;2023-09-18T10:58:33;23.00;99.90
29571;DHT22;16814;52.118;11.436;2023-09-18T11:01:05;23.00;99.90
29571;DHT22;16814;52.118;11.436;2023-09-18T11:03:33;23.00;99.90
29571;DHT22;16814;52.118;11.436;2023-09-18T11:06:07;23.10;99.90
29571;DHT22;16814;52.118;11.436;2023-09-18T11:08:34;23.20;99.90
29571;DHT22;16814;52.118;11.436;2023-09-18T11:11:08;23.40;99.90
29571;DHT22;16814;52.118;11.436;2023-09-18T11:13:48;23.70;99.90
29571;DHT22;16814;52.118;11.436;2023-09-18T11:19:16;24.30;99.90
29571;DHT22;16814;52.118;11.436;2023-09-18T11:21:43;24.60;99.90
29571;DHT22;16814;52.118;11.436;2023-09-18T11:24:20;24.70;99.90
29571;DHT22;16814;52.118;11.436;2023-09-18T11:26:49;24.80;99.90
29571;DHT22;16814;52.118;11.436;2023-09-18T11:29:17;25.00;99.90
29571;DHT22;16814;52.118;11.436;2023-09-18T11:31:53;25.10;99.90
29571;DHT22;16814;52.118;11.436;2023-09-18T11:34:24;25.10;99.90
29571;DHT22;16814;52.118;11.436;2023-09-18T11:36:57;25.00;99.90
29571;DHT22;16814;52.118;11.436;2023-09-18T11:39:37;25.00;99.90
29571;DHT22;16814;52.118;11.436;2023-09-18T11:42:20;25.10;99.90
29571;DHT22;16814;52.118;11.436;2023-09-18T11:44:49;25.10;99.90
29571;DHT22;16814;52.118;11.436;2023-09-18T11:47:20;25.00;99.90
29571;DHT22;16814;52.118;11.436;2023-09-18T11:49:51;25.30;99.90
29571;DHT22;16814;52.118;11.436;2023-09-18T11:52:23;24.90;99.90
29571;DHT22;16814;52.118;11.436;2023-09-18T11:54:50;24.80;99.90
29571;DHT22;16814;52.118;11.436;2023-09-18T11:57:17;24.80;99.90
29571;DHT22;16814;52.118;11.436;2023-09-18T11:59:44;24.80;99.90
29571;DHT22;16814;52.118;11.436;2023-09-18T12:02:12;24.90;99.90
29571;DHT22;16814;52.118;11.436;2023-09-18T12:04:49;25.00;99.90
29571;DHT22;16814;52.118;11.436;2023-09-18T12:07:14;25.00;99.90
29571;DHT22;16814;52.118;11.436;2023-09-18T12:09:40;25.00;99.90
29571;DHT22;16814;52.118;11.436;2023-09-18T12:12:06;25.10;99.90
29571;DHT22;16814;52.118;11.436;2023-09-18T12:14:33;25.20;99.90
29571;DHT22;16814;52.118;11.436;2023-09-18T12:17:02;25.20;99.90
29571;DHT22;16814;52.118;11.436;2023-09-18T12:19:29;25.20;99.90
29571;DHT22;16814;52.118;11.436;2023-09-18T12:21:57;25.30;99.90
29571;DHT22;16814;52.118;11.436;2023-09-18T12:24:23;25.30;99.90
29571;DHT22;16814;52.118;11.436;2023-09-18T12:26:51;25.30;99.90
29571;DHT22;16814;52.118;11.436;2023-09-18T12:29:16;25.30;99.90
29571;DHT22;16814;52.118;11.436;2023-09-18T12:31:42;25.30;99.90
29571;DHT22;16814;52.118;11.436;2023-09-18T12:34:17;25.30;99.90
29571;DHT22;16814;52.118;11.436;2023-09-18T12:36:44;25.40;99.90
29571;DHT22;16814;52.118;11.436;2023-09-18T12:39:13;25.50;99.90
29571;DHT22;16814;52.118;11.436;2023-09-18T12:41:47;25.60;99.90
29571;DHT22;16814;52.118;11.436;2023-09-18T12:44:13;25.60;99.90
29571;DHT22;16814;52.118;11.436;2023-09-18T12:46:42;25.60;99.90
29571;DHT22;16814;52.118;11.436;2023-09-18T12:49:21;25.60;99.90
29571;DHT22;16814;52.118;11.436;2023-09-18T12:51:58;25.70;99.90
29571;DHT22;16814;52.118;11.436;2023-09-18T12:54:40;25.70;99.90
29571;DHT22;16814;52.118;11.436;2023-09-18T12:57:07;25.70;99.90
29571;DHT22;16814;52.118;11.436;2023-09-18T12:59:34;25.60;99.90
29571;DHT22;16814;52.118;11.436;2023-09-18T13:02:02;25.80;99.90
29571;DHT22;16814;52.118;11.436;2023-09-18T13:04:36;25.60;99.90
29571;DHT22;16814;52.118;11.436;2023-09-18T13:07:16;25.50;99.90
29571;DHT22;16814;52.118;11.436;2023-09-18T13:09:42;25.60;99.90
29571;DHT22;16814;52.118;11.436;2023-09-18T13:12:09;25.30;99.90
29571;DHT22;16814;52.118;11.436;2023-09-18T13:14:57;25.40;99.90
29571;DHT22;16814;52.118;11.436;2023-09-18T13:17:24;25.50;99.90
29571;DHT22;16814;52.118;11.436;2023-09-18T13:19:50;25.40;99.90
29571;DHT22;16814;52.118;11.436;2023-09-18T13:22:25;25.60;99.90
29571;DHT22;16814;52.118;11.436;2023-09-18T13:24:58;25.50;99.90
29571;DHT22;16814;52.118;11.436;2023-09-18T13:27:24;25.40;99.90
29571;DHT22;16814;52.118;11.436;2023-09-18T13:29:52;25.50;99.90
29571;DHT22;16814;52.118;11.436;2023-09-18T13:32:20;25.20;99.90
29571;DHT22;16814;52.118;11.436;2023-09-18T13:34:46;25.00;99.90
29571;DHT22;16814;52.118;11.436;2023-09-18T13:37:12;24.80;99.90
29571;DHT22;16814;52.118;11.436;2023-09-18T13:39:39;24.70;99.90
29571;DHT22;16814;52.118;11.436;2023-09-18T13:42:05;24.50;99.90
29571;DHT22;16814;52.118;11.436;2023-09-18T13:44:30;24.40;99.90
29571;DHT22;16814;52.118;11.436;2023-09-18T13:46:56;24.40;99.90
29571;DHT22;16814;52.118;11.436;2023-09-18T13:49:22;24.20;99.90
29571;DHT22;16814;52.118;11.436;2023-09-18T13:51:48;24.10;99.90
29571;DHT22;16814;52.118;11.436;2023-09-18T13:54:15;24.30;99.90
29571;DHT22;16814;52.118;11.436;2023-09-18T13:56:42;24.10;99.90
29571;DHT22;16814;52.118;11.436;2023-09-18T13:59:08;24.00;99.90
29571;DHT22;16814;52.118;11.436;2023-09-18T14:01:35;24.00;99.90
29571;DHT22;16814;52.118;11.436;2023-09-18T14:04:01;24.00;99.90
29571;DHT22;16814;52.118;11.436;2023-09-18T14:06:26;23.90;99.90
29571;DHT22;16814;52.118;11.436;2023-09-18T14:08:52;24.00;99.90
29571;DHT22;16814;52.118;11.436;2023-09-18T14:11:19;24.00;99.90
29571;DHT22;16814;52.118;11.436;2023-09-18T14:13:46;24.00;99.90
29571;DHT22;16814;52.118;11.436;2023-09-18T14:16:14;23.90;99.90
29571;DHT22;16814;52.118;11.436;2023-09-18T14:18:40;23.90;99.90
29571;DHT22;16814;52.118;11.436;2023-09-18T14:21:05;23.90;99.90
29571;DHT22;16814;52.118;11.436;2023-09-18T14:23:32;24.00;99.90
29571;DHT22;16814;52.118;11.436;2023-09-18T14:25:59;23.90;99.90
29571;DHT22;16814;52.118;11.436;2023-09-18T14:28:26;23.90;99.90
29571;DHT22;16814;52.118;11.436;2023-09-18T14:30:51;24.20;99.90
29571;DHT22;16814;52.118;11.436;2023-09-18T14:33:17;24.60;99.90
29571;DHT22;16814;52.118;11.436;2023-09-18T14:35:42;24.10;99.90
29571;DHT22;16814;52.118;11.436;2023-09-18T14:38:08;24.20;99.90
29571;DHT22;16814;52.118;11.436;2023-09-18T14:40:35;24.10;99.90
29571;DHT22;16814;52.118;11.436;2023-09-18T14:43:00;24.10;99.90
29571;DHT22;16814;52.118;11.436;2023-09-18T14:45:26;24.40;99.90
29571;DHT22;16814;52.118;11.436;2023-09-18T14:47:51;24.10;99.90
29571;DHT22;16814;52.118;11.436;2023-09-18T14:50:17;24.10;99.90
29571;DHT22;16814;52.118;11.436;2023-09-18T14:52:43;24.00;99.90
29571;DHT22;16814;52.118;11.436;2023-09-18T14:55:08;23.90;99.90
29571;DHT22;16814;52.118;11.436;2023-09-18T14:57:34;23.80;99.90
29571;DHT22;16814;52.118;11.436;2023-09-18T15:00:00;23.80;99.90
29571;DHT22;16814;52.118;11.436;2023-09-18T15:02:25;23.70;99.90
29571;DHT22;16814;52.118;11.436;2023-09-18T15:04:55;23.70;99.90
29571;DHT22;16814;52.118;11.436;2023-09-18T15:07:20;23.70;99.90
29571;DHT22;16814;52.118;11.436;2023-09-18T15:09:46;23.60;99.90
29571;DHT22;16814;52.118;11.436;2023-09-18T15:12:11;23.60;99.90
29571;DHT22;16814;52.118;11.436;2023-09-18T15:14:37;23.60;99.90
29571;DHT22;16814;52.118;11.436;2023-09-18T15:17:03;23.70;99.90
29571;DHT22;16814;52.118;11.436;2023-09-18T15:19:29;23.60;99.90
29571;DHT22;16814;52.118;11.436;2023-09-18T15:21:55;23.60;99.90
29571;DHT22;16814;52.118;11.436;2023-09-18T15:24:22;23.60;99.90
29571;DHT22;16814;52.118;11.436;2023-09-18T15:26:48;23.60;99.90
29571;DHT22;16814;52.118;11.436;2023-09-18T15:29:15;24.10;99.90